createdAt,value
2022-09-01T00:00:19.085Z,20.60
2022-09-01T00:02:51.108Z,21.40
2022-09-01T00:05:21.887Z,21.23
2022-09-01T00:07:51.232Z,19.67
2022-09-01T00:10:22.412Z,20.00
2022-09-01T00:12:51.729Z,18.90
2022-09-01T00:15:21.854Z,19.33
2022-09-01T00:17:51.273Z,19.57
2022-09-01T00:20:22.724Z,18.83
2022-09-01T00:22:52.411Z,19.00
2022-09-01T00:25:24.460Z,19.43
2022-09-01T00:27:54.666Z,20.00
2022-09-01T00:30:25.208Z,20.20
2022-09-01T00:32:54.818Z,19.23
2022-09-01T00:35:25.729Z,17.80
2022-09-01T00:37:54.530Z,19.00
2022-09-01T00:40:23.566Z,19.43
2022-09-01T00:42:54.232Z,19.23
2022-09-01T00:45:24.071Z,18.77
2022-09-01T00:47:52.904Z,20.13
2022-09-01T00:50:23.237Z,20.07
2022-09-01T00:52:57.451Z,19.40
2022-09-01T00:55:32.711Z,20.37
2022-09-01T00:58:02.492Z,19.23
2022-09-01T01:00:34.630Z,21.77
2022-09-01T01:03:04.543Z,20.43
2022-09-01T01:05:40.214Z,19.67
2022-09-01T01:08:13.537Z,20.27
2022-09-01T01:10:43.807Z,21.30
2022-09-01T01:13:16.881Z,21.13
2022-09-01T01:15:46.684Z,21.63
2022-09-01T01:18:17.008Z,21.07
2022-09-01T01:21:19.949Z,21.37
2022-09-01T01:23:57.292Z,22.97
2022-09-01T01:26:28.738Z,21.27
2022-09-01T01:28:57.481Z,20.00
2022-09-01T01:31:26.254Z,22.70
2022-09-01T01:33:57.161Z,21.63
2022-09-01T01:36:32.911Z,23.43
2022-09-01T01:39:04.022Z,22.37
2022-09-01T01:41:35.667Z,20.10
2022-09-01T01:44:06.035Z,21.67
2022-09-01T01:46:36.366Z,23.03
2022-09-01T01:49:05.476Z,21.17
2022-09-01T01:51:34.596Z,21.87
2022-09-01T01:54:06.454Z,20.93
2022-09-01T01:56:40.147Z,20.70
2022-09-01T01:59:16.779Z,21.93
2022-09-01T02:01:49.524Z,21.97
2022-09-01T02:04:19.127Z,22.43
2022-09-01T02:06:56.110Z,21.63
2022-09-01T02:09:24.620Z,21.73
2022-09-01T02:12:11.095Z,21.03
2022-09-01T02:15:46.083Z,22.07
2022-09-01T02:18:47.383Z,21.13
2022-09-01T02:21:20.955Z,21.00
2022-09-01T02:23:59.750Z,21.23
2022-09-01T02:26:31.358Z,21.87
2022-09-01T02:29:10.519Z,19.60
2022-09-01T02:31:40.295Z,20.63
2022-09-01T02:34:08.161Z,21.83
2022-09-01T02:39:26.948Z,20.87
2022-09-01T02:42:09.952Z,21.50
2022-09-01T02:44:43.077Z,20.77
2022-09-01T02:47:18.517Z,20.77
2022-09-01T02:49:47.881Z,21.63
2022-09-01T02:52:23.557Z,21.60
2022-09-01T02:54:55.692Z,21.57
2022-09-01T02:57:25.005Z,20.90
2022-09-01T03:00:02.519Z,21.83
2022-09-01T03:02:36.145Z,20.60
2022-09-01T03:05:06.218Z,21.47
2022-09-01T03:07:36.533Z,21.20
2022-09-01T03:10:14.580Z,21.43
2022-09-01T03:12:45.533Z,20.77
2022-09-01T03:15:45.995Z,22.30
2022-09-01T03:18:18.892Z,20.60
2022-09-01T03:20:49.551Z,21.50
2022-09-01T03:23:20.805Z,20.07
2022-09-01T03:25:49.883Z,20.43
2022-09-01T03:28:18.722Z,20.80
2022-09-01T03:30:51.153Z,20.67
2022-09-01T03:33:22.125Z,21.33
2022-09-01T03:35:50.709Z,21.40
2022-09-01T03:38:22.342Z,21.47
2022-09-01T03:40:53.012Z,22.53
2022-09-01T03:43:25.460Z,22.03
2022-09-01T03:45:56.506Z,22.10
2022-09-01T03:48:28.262Z,21.80
2022-09-01T03:51:00.350Z,22.23
2022-09-01T03:53:28.805Z,22.47
2022-09-01T03:56:00.285Z,21.47
2022-09-01T03:58:39.429Z,22.57
2022-09-01T04:01:09.576Z,22.20
2022-09-01T04:03:43.367Z,22.27
2022-09-01T04:06:13.238Z,23.90
2022-09-01T04:08:43.221Z,22.47
2022-09-01T04:11:16.577Z,23.63
2022-09-01T04:13:45.132Z,22.93
2022-09-01T04:16:38.686Z,23.70
2022-09-01T04:19:16.284Z,23.67
2022-09-01T04:21:46.595Z,22.67
2022-09-01T04:24:17.190Z,25.07
2022-09-01T04:26:58.141Z,23.53
2022-09-01T04:29:28.953Z,23.23
2022-09-01T04:32:13.525Z,24.10
2022-09-01T04:34:42.288Z,21.97
2022-09-01T04:37:18.348Z,22.73
2022-09-01T04:39:55.669Z,22.70
2022-09-01T04:42:29.854Z,23.20
2022-09-01T04:45:00.034Z,26.70
2022-09-01T04:47:42.003Z,25.13
2022-09-01T04:50:14.975Z,26.70
2022-09-01T04:52:43.828Z,27.43
2022-09-01T04:55:17.974Z,28.23
2022-09-01T04:57:49.900Z,28.50
2022-09-01T05:00:26.367Z,23.40
2022-09-01T05:03:05.188Z,23.13
2022-09-01T05:05:57.603Z,22.30
2022-09-01T05:08:32.929Z,23.03
2022-09-01T05:11:08.094Z,22.13
2022-09-01T05:13:39.019Z,22.63
2022-09-01T05:16:13.359Z,22.77
2022-09-01T05:18:48.048Z,23.50
2022-09-01T05:21:20.110Z,23.17
2022-09-01T05:24:01.097Z,22.80
2022-09-01T05:26:40.990Z,21.60
2022-09-01T05:29:13.685Z,22.17
2022-09-01T05:31:49.612Z,22.60
2022-09-01T05:34:26.462Z,22.43
2022-09-01T05:36:58.170Z,20.73
2022-09-01T05:39:26.908Z,21.07
2022-09-01T05:41:56.284Z,22.27
2022-09-01T05:44:25.130Z,20.93
2022-09-01T05:46:56.054Z,20.73
2022-09-01T05:49:26.906Z,19.60
2022-09-01T05:51:55.937Z,20.00
2022-09-01T05:54:27.950Z,20.40
2022-09-01T05:57:04.916Z,20.53
2022-09-01T05:59:42.170Z,19.07
2022-09-01T06:02:12.570Z,16.33
2022-09-01T06:04:44.180Z,13.43
2022-09-01T06:07:16.326Z,15.27
2022-09-01T06:09:48.197Z,13.27
2022-09-01T06:12:24.018Z,12.70
2022-09-01T06:14:54.724Z,13.50
2022-09-01T06:17:25.910Z,13.03
2022-09-01T06:19:57.265Z,14.07
2022-09-01T06:22:28.217Z,13.50
2022-09-01T06:25:02.422Z,12.17
2022-09-01T06:27:31.422Z,12.87
2022-09-01T06:30:00.315Z,12.87
2022-09-01T06:32:28.941Z,13.37
2022-09-01T06:35:00.579Z,13.80
2022-09-01T06:37:30.690Z,12.60
2022-09-01T06:39:59.483Z,12.13
2022-09-01T06:42:27.855Z,13.33
2022-09-01T06:44:57.399Z,12.73
2022-09-01T06:47:28.789Z,12.80
2022-09-01T06:49:59.205Z,13.23
2022-09-01T06:53:32.092Z,13.63
2022-09-01T06:55:18.493Z,13.70
2022-09-01T06:58:07.718Z,12.97
2022-09-01T07:00:42.101Z,14.37
2022-09-01T07:03:12.540Z,14.33
2022-09-01T07:14:35.589Z,15.40
2022-09-01T07:17:24.713Z,14.40
2022-09-01T07:19:54.073Z,14.80
2022-09-01T07:23:03.375Z,14.87
2022-09-01T07:26:01.407Z,14.60
2022-09-01T07:28:20.686Z,13.63
2022-09-01T07:30:54.350Z,13.93
2022-09-01T07:36:29.382Z,13.57
2022-09-01T07:44:44.160Z,11.10
2022-09-01T07:47:19.855Z,10.10
2022-09-01T07:50:12.512Z,10.67
2022-09-01T07:52:43.160Z,11.03
2022-09-01T07:55:12.658Z,11.40
2022-09-01T07:57:43.710Z,8.73
2022-09-01T08:00:14.560Z,8.70
2022-09-01T08:02:44.588Z,8.97
2022-09-01T08:05:22.794Z,8.40
2022-09-01T08:07:52.488Z,8.27
2022-09-01T08:10:23.058Z,7.93
2022-09-01T08:12:56.779Z,8.27
2022-09-01T08:16:06.518Z,8.13
2022-09-01T08:18:14.984Z,7.73
2022-09-01T08:20:47.193Z,8.33
2022-09-01T08:23:18.688Z,9.03
2022-09-01T08:25:51.860Z,7.87
2022-09-01T08:28:27.305Z,7.77
2022-09-01T08:31:19.624Z,9.20
2022-09-01T08:33:54.091Z,7.97
2022-09-01T08:36:26.010Z,7.63
2022-09-01T08:39:23.262Z,8.00
2022-09-01T08:42:01.195Z,7.97
2022-09-01T08:44:45.439Z,7.67
2022-09-01T08:47:32.414Z,7.13
2022-09-01T08:50:06.375Z,7.87
2022-09-01T08:52:39.393Z,8.30
2022-09-01T08:55:26.750Z,8.20
2022-09-01T08:58:14.326Z,7.53
2022-09-01T09:04:52.376Z,9.07
2022-09-01T09:08:07.919Z,8.47
2022-09-01T09:10:48.559Z,8.30
2022-09-01T09:13:27.827Z,8.33
2022-09-01T09:18:54.770Z,8.93
2022-09-01T09:21:30.043Z,9.03
2022-09-01T09:24:09.357Z,8.33
2022-09-01T09:26:44.522Z,7.90
2022-09-01T09:29:13.894Z,8.97
2022-09-01T09:31:50.025Z,8.37
2022-09-01T09:34:32.892Z,9.17
2022-09-01T09:37:18.830Z,8.60
2022-09-01T09:40:12.672Z,7.67
2022-09-01T09:42:43.519Z,7.20
2022-09-01T09:45:26.442Z,7.37
2022-09-01T09:50:42.160Z,7.13
2022-09-01T09:53:16.426Z,7.13
2022-09-01T09:56:00.727Z,7.53
2022-09-01T09:58:38.412Z,7.90
2022-09-01T10:01:17.899Z,7.90
2022-09-01T10:03:50.926Z,7.50
2022-09-01T10:06:34.112Z,5.90
2022-09-01T10:09:05.632Z,6.70
2022-09-01T10:11:42.215Z,5.83
2022-09-01T10:14:35.945Z,5.50
2022-09-01T10:17:27.742Z,4.80
2022-09-01T10:23:15.738Z,5.40
2022-09-01T10:26:09.497Z,4.67
2022-09-01T10:29:04.979Z,5.07
2022-09-01T10:31:44.168Z,4.53
2022-09-01T11:18:52.234Z,2.90
2022-09-01T11:31:19.514Z,2.73
2022-09-01T11:34:14.412Z,2.60
2022-09-01T11:37:35.270Z,2.50
2022-09-01T11:40:26.008Z,2.40
2022-09-01T11:43:23.371Z,2.10
2022-09-01T11:46:11.579Z,2.03
2022-09-01T11:48:41.426Z,2.90
2022-09-01T11:51:14.756Z,2.30
2022-09-01T11:53:54.860Z,2.30
2022-09-01T11:56:29.395Z,2.67
2022-09-01T11:59:00.937Z,2.30
2022-09-01T12:01:38.310Z,2.57
2022-09-01T12:04:25.340Z,2.53
2022-09-01T12:06:59.777Z,2.80
2022-09-01T12:09:39.944Z,2.40
2022-09-01T12:12:30.722Z,2.50
2022-09-01T12:15:05.841Z,2.53
2022-09-01T12:17:36.325Z,2.83
2022-09-01T12:20:29.935Z,2.70
2022-09-01T12:23:03.606Z,3.23
2022-09-01T12:25:36.553Z,3.37
2022-09-01T12:28:11.080Z,2.80
2022-09-01T12:30:44.514Z,2.30
2022-09-01T12:33:23.351Z,2.60
2022-09-01T12:36:07.854Z,2.43
2022-09-01T12:39:25.795Z,2.10
2022-09-01T12:42:11.461Z,2.10
2022-09-01T12:44:52.591Z,2.30
2022-09-01T12:47:52.820Z,2.60
2022-09-01T12:50:52.041Z,2.57
2022-09-01T12:53:25.440Z,2.63
2022-09-01T12:56:09.315Z,2.97
2022-09-01T12:58:43.056Z,2.87
2022-09-01T13:01:27.291Z,2.53
2022-09-01T13:04:18.626Z,2.30
2022-09-01T13:06:49.785Z,2.57
2022-09-01T13:09:18.429Z,2.30
2022-09-01T13:12:06.542Z,2.80
2022-09-01T13:14:53.711Z,2.27
2022-09-01T13:17:24.208Z,2.20
2022-09-01T13:19:57.902Z,2.30
2022-09-01T13:22:37.620Z,2.70
2022-09-01T13:27:56.203Z,2.30
2022-09-01T13:37:10.950Z,2.50
2022-09-01T13:42:57.295Z,2.30
2022-09-01T13:45:42.026Z,2.00
2022-09-01T13:48:16.108Z,2.60
2022-09-01T13:53:46.811Z,2.57
2022-09-01T13:56:18.750Z,2.03
2022-09-01T14:01:57.915Z,1.97
2022-09-01T14:04:57.602Z,2.20
2022-09-01T14:07:28.747Z,2.77
2022-09-01T14:09:57.471Z,2.27
2022-09-01T14:12:26.126Z,2.00
2022-09-01T14:17:43.362Z,3.13
2022-09-01T14:20:14.641Z,3.00
2022-09-01T14:22:45.599Z,2.47
2022-09-01T14:25:14.780Z,2.00
2022-09-01T14:27:44.593Z,2.03
2022-09-01T14:30:16.427Z,2.23
2022-09-01T14:32:45.200Z,1.97
2022-09-01T14:35:19.643Z,2.20
2022-09-01T14:37:50.408Z,2.50
2022-09-01T14:40:20.279Z,2.40
2022-09-01T14:45:38.704Z,2.00
2022-09-01T14:48:07.670Z,2.30
2022-09-01T14:50:37.005Z,2.00
2022-09-01T14:53:07.354Z,1.90
2022-09-01T14:55:36.226Z,1.60
2022-09-01T14:58:07.777Z,1.60
2022-09-01T15:00:37.166Z,1.67
2022-09-01T15:03:06.926Z,1.60
2022-09-01T15:05:39.903Z,1.93
2022-09-01T15:08:16.995Z,1.90
2022-09-01T15:10:46.653Z,1.97
2022-09-01T15:13:15.919Z,1.60
2022-09-01T15:15:44.418Z,1.77
2022-09-01T15:18:12.534Z,1.80
2022-09-01T15:20:48.506Z,2.70
2022-09-01T15:23:20.979Z,1.97
2022-09-01T15:25:51.980Z,2.50
2022-09-01T15:28:20.772Z,2.27
2022-09-01T15:30:49.101Z,1.87
2022-09-01T15:33:17.307Z,1.80
2022-09-01T15:35:46.351Z,1.80
2022-09-01T15:38:16.173Z,1.70
2022-09-01T15:40:57.128Z,2.23
2022-09-01T15:43:26.733Z,2.50
2022-09-01T15:45:58.386Z,1.90
2022-09-01T15:48:27.490Z,1.80
2022-09-01T15:51:02.014Z,1.60
2022-09-01T15:53:32.994Z,1.70
2022-09-01T15:56:03.858Z,1.53
2022-09-01T15:58:44.443Z,1.93
2022-09-01T16:01:22.625Z,1.73
2022-09-01T16:03:53.194Z,1.50
2022-09-01T16:06:21.291Z,1.30
2022-09-01T16:08:49.921Z,1.60
2022-09-01T16:11:19.540Z,1.63
2022-09-01T16:13:52.331Z,1.77
2022-09-01T16:16:40.708Z,2.13
2022-09-01T16:19:19.333Z,2.20
2022-09-01T16:21:54.234Z,2.00
2022-09-01T16:24:23.527Z,1.50
2022-09-01T16:26:53.260Z,1.50
2022-09-01T16:29:30.264Z,1.73
2022-09-01T16:32:01.340Z,1.70
2022-09-01T16:34:35.684Z,44.23
2022-09-01T16:37:11.441Z,4.53
2022-09-01T16:39:47.409Z,2.83
2022-09-01T16:42:31.227Z,1.60
2022-09-01T16:45:11.288Z,1.80
2022-09-01T16:47:52.918Z,3.30
2022-09-01T16:50:30.325Z,2.13
2022-09-01T16:53:14.123Z,1.67
2022-09-01T16:55:56.809Z,1.50
2022-09-01T16:58:31.837Z,2.10
2022-09-01T17:01:12.984Z,1.80
2022-09-01T17:03:56.361Z,1.90
2022-09-01T17:06:31.994Z,1.70
2022-09-01T17:09:11.608Z,2.00
2022-09-01T17:11:49.150Z,1.90
2022-09-01T17:14:27.953Z,1.80
2022-09-01T17:17:13.105Z,1.90
2022-09-01T17:19:43.298Z,1.70
2022-09-01T17:22:16.655Z,1.70
2022-09-01T17:24:48.570Z,1.70
2022-09-01T17:27:26.606Z,2.00
2022-09-01T17:29:59.403Z,1.73
2022-09-01T17:32:54.782Z,1.70
2022-09-01T17:41:23.433Z,2.10
2022-09-01T17:44:00.059Z,1.67
2022-09-01T17:46:40.118Z,2.00
2022-09-01T17:49:20.116Z,2.00
2022-09-01T17:51:55.394Z,1.80
2022-09-01T17:54:32.852Z,1.90
2022-09-01T17:57:13.151Z,2.23
2022-09-01T17:59:53.345Z,1.67
2022-09-01T18:02:59.075Z,2.53
2022-09-01T18:05:37.115Z,2.20
2022-09-01T18:08:34.136Z,2.03
2022-09-01T18:11:08.233Z,1.57
2022-09-01T18:21:57.397Z,1.60
2022-09-01T18:24:33.540Z,1.97
2022-09-01T18:27:02.804Z,2.10
2022-09-01T18:29:34.848Z,1.80
2022-09-01T18:32:19.767Z,1.57
2022-09-01T18:35:04.649Z,1.90
2022-09-01T18:37:49.706Z,1.80
2022-09-01T18:40:24.913Z,1.70
2022-09-01T18:43:03.634Z,1.50
2022-09-01T18:45:41.065Z,2.00
2022-09-01T18:48:20.146Z,1.50
2022-09-01T18:50:56.389Z,2.20
2022-09-01T18:54:13.678Z,1.80
2022-09-01T18:56:49.064Z,1.77
2022-09-01T18:59:50.551Z,1.60
2022-09-01T19:02:37.153Z,2.00
2022-09-01T19:05:20.593Z,1.70
2022-09-01T19:07:56.861Z,2.33
2022-09-01T19:10:32.862Z,1.80
2022-09-01T19:13:07.900Z,2.00
2022-09-01T19:15:43.337Z,1.87
2022-09-01T19:18:18.235Z,1.70
2022-09-01T19:20:52.644Z,1.83
2022-09-01T19:23:30.186Z,2.20
2022-09-01T19:26:09.479Z,1.80
2022-09-01T19:28:45.612Z,1.87
2022-09-01T19:31:24.254Z,1.83
2022-09-01T19:33:57.469Z,1.97
2022-09-01T19:36:32.707Z,2.10
2022-09-01T19:39:02.143Z,1.77
2022-09-01T19:41:37.749Z,1.80
2022-09-01T19:44:14.827Z,2.13
2022-09-01T19:46:50.131Z,1.57
2022-09-01T19:49:28.414Z,1.90
2022-09-01T19:52:06.587Z,2.10
2022-09-01T19:54:43.601Z,2.23
2022-09-01T19:57:20.606Z,1.87
2022-09-01T20:00:04.381Z,2.00
2022-09-01T20:02:37.374Z,1.90
2022-09-01T20:05:13.589Z,2.27
2022-09-01T20:08:01.094Z,2.03
2022-09-01T20:14:32.269Z,2.20
2022-09-01T20:17:09.341Z,1.90
2022-09-01T20:19:59.906Z,3.10
2022-09-01T20:25:11.024Z,2.37
2022-09-01T20:28:07.788Z,2.10
2022-09-01T20:31:09.829Z,2.10
2022-09-01T20:33:46.473Z,2.13
2022-09-01T20:40:23.556Z,2.63
2022-09-01T20:50:20.676Z,1.90
2022-09-01T20:53:35.551Z,2.73
2022-09-01T20:56:14.727Z,2.43
2022-09-01T21:05:01.084Z,2.00
2022-09-01T21:11:16.060Z,2.07
2022-09-01T21:13:56.529Z,2.07
2022-09-01T21:16:32.653Z,2.20
2022-09-01T21:19:06.676Z,2.70
2022-09-01T21:21:52.679Z,2.00
2022-09-01T21:24:23.579Z,2.03
2022-09-01T21:26:56.680Z,2.50
2022-09-01T21:35:41.336Z,2.50
2022-09-01T21:38:10.910Z,3.27
2022-09-01T21:40:41.664Z,2.80
2022-09-01T21:43:32.229Z,3.50
2022-09-01T21:46:02.148Z,2.93
2022-09-01T21:48:33.516Z,2.30
2022-09-01T21:51:05.282Z,2.33
2022-09-01T21:53:35.283Z,2.40
2022-09-01T21:56:07.452Z,2.40
2022-09-01T21:58:39.581Z,2.67
2022-09-01T22:01:10.664Z,2.70
2022-09-01T22:06:52.486Z,2.70
2022-09-01T22:12:49.588Z,2.40
2022-09-01T22:15:24.383Z,3.37
2022-09-01T22:20:38.564Z,2.50
2022-09-01T22:23:10.995Z,2.27
2022-09-01T22:31:37.474Z,2.70
2022-09-01T22:34:06.437Z,2.73
2022-09-01T22:36:51.870Z,2.90
2022-09-01T22:39:25.184Z,3.00
2022-09-01T22:42:08.669Z,2.60
2022-09-01T22:44:38.047Z,2.60
2022-09-01T22:47:10.417Z,2.60
2022-09-01T22:49:40.231Z,2.50
2022-09-01T22:52:08.882Z,3.07
2022-09-01T22:54:52.061Z,2.43
2022-09-01T22:57:20.906Z,3.23
2022-09-01T22:59:50.887Z,2.97
2022-09-01T23:02:22.894Z,2.83
2022-09-01T23:04:54.848Z,2.87
2022-09-01T23:07:24.197Z,2.27
2022-09-01T23:09:55.155Z,2.90
2022-09-01T23:12:24.929Z,2.67
2022-09-01T23:14:54.705Z,2.77
2022-09-01T23:17:25.598Z,2.83
2022-09-01T23:19:55.002Z,2.77
2022-09-01T23:22:24.117Z,2.60
2022-09-01T23:24:53.132Z,2.57
2022-09-01T23:27:22.566Z,2.87
2022-09-01T23:29:52.116Z,2.87
2022-09-01T23:32:20.835Z,2.73
2022-09-01T23:34:51.057Z,3.20
2022-09-01T23:37:20.531Z,3.00
2022-09-01T23:39:51.039Z,2.77
2022-09-01T23:42:20.777Z,3.20
2022-09-01T23:44:49.997Z,3.03
2022-09-01T23:47:56.682Z,2.83
2022-09-01T23:50:27.323Z,2.67
2022-09-01T23:52:57.038Z,2.73
2022-09-01T23:58:20.126Z,2.87
